createdAt,value
2022-08-09T00:00:05.875Z,102623.41
2022-08-09T00:01:43.092Z,102624.39
2022-08-09T00:02:57.258Z,102626.70
2022-08-09T00:04:08.495Z,102625.52
2022-08-09T00:06:17.933Z,102629.33
2022-08-09T00:06:44.295Z,102631.26
2022-08-09T00:07:48.598Z,102631.05
2022-08-09T00:08:53.302Z,102632.68
2022-08-09T00:10:00.291Z,102630.19
2022-08-09T00:11:05.823Z,102627.95
2022-08-09T00:12:26.414Z,102627.86
2022-08-09T00:13:38.414Z,102625.16
2022-08-09T00:14:45.373Z,102625.79
2022-08-09T00:15:59.015Z,102624.23
2022-08-09T00:17:05.086Z,102625.73
2022-08-09T00:18:11.085Z,102627.54
2022-08-09T00:19:15.271Z,102625.11
2022-08-09T00:20:21.610Z,102625.77
2022-08-09T00:21:25.225Z,102624.98
2022-08-09T00:22:35.066Z,102625.98
2022-08-09T00:23:56.242Z,102625.24
2022-08-09T00:25:03.928Z,102622.88
2022-08-09T00:26:12.303Z,102623.98
2022-08-09T00:27:17.357Z,102623.14
2022-08-09T00:28:22.372Z,102624.65
2022-08-09T00:29:39.904Z,102620.47
2022-08-09T00:30:53.127Z,102620.91
2022-08-09T00:31:58.928Z,102619.30
2022-08-09T00:33:03.979Z,102622.30
2022-08-09T00:34:07.393Z,102618.76
2022-08-09T00:35:10.873Z,102618.09
2022-08-09T00:36:13.793Z,102616.59
2022-08-09T00:37:17.083Z,102617.05
2022-08-09T00:38:21.444Z,102620.13
2022-08-09T00:40:13.898Z,102619.77
2022-08-09T00:40:52.703Z,102619.09
2022-08-09T00:44:11.191Z,102618.91
2022-08-09T00:44:13.330Z,102619.92
2022-08-09T00:44:43.175Z,102617.63
2022-08-09T00:45:53.801Z,102620.31
2022-08-09T00:47:04.802Z,102618.48
2022-08-09T00:48:08.585Z,102617.36
2022-08-09T00:49:18.527Z,102618.16
2022-08-09T00:50:24.085Z,102616.13
2022-08-09T00:51:27.086Z,102618.21
2022-08-09T00:52:37.318Z,102616.88
2022-08-09T00:53:41.137Z,102618.41
2022-08-09T00:54:45.019Z,102616.61
2022-08-09T00:56:04.429Z,102617.48
2022-08-09T00:57:10.588Z,102616.16
2022-08-09T00:58:14.720Z,102618.00
2022-08-09T00:59:41.389Z,102617.42
2022-08-09T01:00:51.048Z,102613.91
2022-08-09T01:01:54.656Z,102613.49
2022-08-09T01:03:13.706Z,102614.25
2022-08-09T01:04:53.065Z,102615.36
2022-08-09T01:06:17.996Z,102617.45
2022-08-09T01:07:38.170Z,102617.20
2022-08-09T01:08:53.050Z,102616.16
2022-08-09T01:09:59.237Z,102615.00
2022-08-09T01:11:24.092Z,102615.75
2022-08-09T01:12:47.621Z,102617.70
2022-08-09T01:14:02.941Z,102617.49
2022-08-09T01:15:16.561Z,102615.86
2022-08-09T01:16:22.189Z,102615.00
2022-08-09T01:17:30.407Z,102614.88
2022-08-09T01:18:37.721Z,102614.63
2022-08-09T01:20:01.874Z,102613.65
2022-08-09T01:21:17.676Z,102615.08
2022-08-09T01:22:36.198Z,102611.89
2022-08-09T01:24:02.874Z,102611.27
2022-08-09T01:25:13.399Z,102610.74
2022-08-09T01:26:40.130Z,102612.75
2022-08-09T01:27:44.052Z,102613.34
2022-08-09T01:28:55.224Z,102611.77
2022-08-09T01:30:04.296Z,102612.50
2022-08-09T01:32:45.298Z,102614.27
2022-08-09T01:33:49.840Z,102613.54
2022-08-09T01:34:53.930Z,102614.37
2022-08-09T01:36:17.040Z,102616.84
2022-08-09T01:37:21.776Z,102614.79
2022-08-09T01:38:46.457Z,102611.89
2022-08-09T01:39:50.670Z,102613.70
2022-08-09T01:41:02.976Z,102608.48
2022-08-09T01:42:11.226Z,102613.04
2022-08-09T01:43:15.183Z,102614.84
2022-08-09T01:44:18.240Z,102616.39
2022-08-09T01:45:23.554Z,102613.64
2022-08-09T01:46:38.288Z,102615.00
2022-08-09T01:47:44.871Z,102612.31
2022-08-09T01:48:51.056Z,102610.95
2022-08-09T01:49:55.902Z,102612.53
2022-08-09T01:50:59.944Z,102609.12
2022-08-09T01:52:07.869Z,102611.50
2022-08-09T01:53:19.257Z,102610.29
2022-08-09T01:54:33.388Z,102612.45
2022-08-09T01:55:36.935Z,102613.38
2022-08-09T01:56:43.873Z,102608.45
2022-08-09T01:57:55.853Z,102608.16
2022-08-09T01:59:01.621Z,102605.66
2022-08-09T02:00:19.126Z,102607.08
2022-08-09T02:01:58.528Z,102609.61
2022-08-09T02:02:53.838Z,102604.99
2022-08-09T02:03:58.271Z,102609.58
2022-08-09T02:05:15.798Z,102612.46
2022-08-09T02:06:45.558Z,102609.00
2022-08-09T02:08:39.639Z,102611.48
2022-08-09T02:09:42.118Z,102613.09
2022-08-09T02:10:50.977Z,102613.13
2022-08-09T02:11:55.465Z,102618.48
2022-08-09T02:13:03.056Z,102616.77
2022-08-09T02:14:09.287Z,102615.13
2022-08-09T02:15:16.651Z,102616.17
2022-08-09T02:16:33.955Z,102617.05
2022-08-09T02:18:00.573Z,102617.60
2022-08-09T02:19:11.462Z,102616.55
2022-08-09T02:20:15.932Z,102612.63
2022-08-09T02:21:34.251Z,102614.16
2022-08-09T02:23:04.202Z,102616.01
2022-08-09T02:24:10.820Z,102614.13
2022-08-09T02:25:42.037Z,102613.04
2022-08-09T02:26:55.603Z,102610.66
2022-08-09T02:28:09.866Z,102610.16
2022-08-09T02:29:16.723Z,102614.33
2022-08-09T02:30:19.590Z,102614.58
2022-08-09T02:31:27.870Z,102611.41
2022-08-09T02:32:36.206Z,102614.30
2022-08-09T02:34:07.330Z,102614.55
2022-08-09T02:35:17.555Z,102615.56
2022-08-09T02:36:26.348Z,102615.30
2022-08-09T02:37:32.957Z,102616.75
2022-08-09T02:38:47.738Z,102617.34
2022-08-09T02:40:03.100Z,102616.13
2022-08-09T02:41:08.814Z,102614.04
2022-08-09T02:42:17.308Z,102614.38
2022-08-09T02:43:21.308Z,102615.55
2022-08-09T02:44:30.169Z,102614.05
2022-08-09T02:45:35.149Z,102615.01
2022-08-09T02:46:38.519Z,102613.38
2022-08-09T02:47:57.148Z,102613.63
2022-08-09T02:49:03.404Z,102616.36
2022-08-09T02:50:13.398Z,102619.19
2022-08-09T02:51:18.432Z,102622.56
2022-08-09T02:52:25.967Z,102624.77
2022-08-09T02:53:43.074Z,102621.77
2022-08-09T02:54:57.632Z,102624.83
2022-08-09T02:56:01.829Z,102623.91
2022-08-09T02:57:14.118Z,102623.02
2022-08-09T02:58:35.629Z,102625.77
2022-08-09T02:59:40.138Z,102626.63
2022-08-09T03:01:06.032Z,102624.61
2022-08-09T03:02:16.799Z,102627.91
2022-08-09T03:03:37.130Z,102631.09
2022-08-09T03:04:46.136Z,102626.41
2022-08-09T03:05:56.996Z,102632.36
2022-08-09T03:07:12.324Z,102631.95
2022-08-09T03:08:17.908Z,102631.79
2022-08-09T03:09:22.977Z,102626.11
2022-08-09T03:10:27.818Z,102631.80
2022-08-09T03:12:06.210Z,102628.37
2022-08-09T03:12:56.860Z,102628.11
2022-08-09T03:14:01.907Z,102628.80
2022-08-09T03:15:05.791Z,102632.12
2022-08-09T03:16:09.198Z,102631.88
2022-08-09T03:17:20.252Z,102632.66
2022-08-09T03:18:30.615Z,102633.80
2022-08-09T03:19:59.090Z,102634.38
2022-08-09T03:20:58.865Z,102632.33
2022-08-09T03:22:03.002Z,102631.92
2022-08-09T03:23:14.503Z,102629.04
2022-08-09T03:24:42.443Z,102626.83
2022-08-09T03:25:58.034Z,102630.05
2022-08-09T03:27:08.150Z,102630.29
2022-08-09T03:28:12.091Z,102632.63
2022-08-09T03:29:22.724Z,102634.71
2022-08-09T03:30:33.450Z,102632.42
2022-08-09T03:31:42.333Z,102630.30
2022-08-09T03:32:45.937Z,102630.56
2022-08-09T04:34:00.498Z,102656.04
2022-08-09T04:35:05.567Z,102659.68
2022-08-09T04:36:11.579Z,102659.27
2022-08-09T04:37:14.734Z,102657.73
2022-08-09T04:38:19.489Z,102660.39
2022-08-09T04:39:22.504Z,102660.17
2022-08-09T04:40:46.498Z,102663.29
2022-08-09T04:41:49.620Z,102662.64
2022-08-09T04:42:52.478Z,102665.30
2022-08-09T04:44:05.800Z,102661.02
2022-08-09T04:45:11.041Z,102661.67
2022-08-09T04:46:19.311Z,102661.96
2022-08-09T04:47:58.538Z,102659.33
2022-08-09T04:48:59.961Z,102655.69
2022-08-09T04:50:03.355Z,102659.64
2022-08-09T04:51:06.334Z,102663.84
2022-08-09T04:52:09.730Z,102663.95
2022-08-09T04:53:13.431Z,102664.85
2022-08-09T04:54:16.888Z,102665.80
2022-08-09T04:55:21.273Z,102666.42
2022-08-09T04:56:26.306Z,102667.92
2022-08-09T04:57:54.453Z,102667.79
2022-08-09T04:58:52.762Z,102669.34
2022-08-09T04:59:58.321Z,102669.54
2022-08-09T05:01:02.696Z,102665.27
2022-08-09T05:02:06.969Z,102671.84
2022-08-09T05:03:12.934Z,102670.75
2022-08-09T05:04:34.243Z,102673.27
2022-08-09T05:05:52.145Z,102671.09
2022-08-09T05:06:55.982Z,102669.10
2022-08-09T05:08:01.178Z,102667.86
2022-08-09T05:09:04.229Z,102669.40
2022-08-09T05:10:07.308Z,102668.44
2022-08-09T05:11:10.963Z,102667.92
2022-08-09T05:12:14.482Z,102669.34
2022-08-09T05:13:18.758Z,102670.10
2022-08-09T05:14:24.025Z,102670.83
2022-08-09T05:15:42.648Z,102670.96
2022-08-09T05:16:58.813Z,102674.33
2022-08-09T05:18:38.800Z,102674.59
2022-08-09T05:19:26.835Z,102676.27
2022-08-09T05:20:47.990Z,102676.35
2022-08-09T05:21:56.006Z,102677.78
2022-08-09T05:23:53.546Z,102675.92
2022-08-09T05:24:24.494Z,102678.96
2022-08-09T05:25:28.324Z,102682.45
2022-08-09T05:26:45.742Z,102682.30
2022-08-09T05:27:50.967Z,102681.83
2022-08-09T05:28:53.903Z,102680.73
2022-08-09T05:29:56.783Z,102682.86
2022-08-09T05:30:59.895Z,102682.35
2022-08-09T05:32:12.574Z,102680.59
2022-08-09T05:33:16.826Z,102682.77
2022-08-09T05:34:19.813Z,102685.83
2022-08-09T05:35:22.843Z,102683.02
2022-08-09T05:36:26.441Z,102687.80
2022-08-09T05:37:31.980Z,102688.20
2022-08-09T05:38:50.924Z,102688.36
2022-08-09T05:39:53.876Z,102685.59
2022-08-09T05:40:56.841Z,102684.63
2022-08-09T05:42:01.519Z,102685.07
2022-08-09T05:43:07.290Z,102685.02
2022-08-09T05:44:11.446Z,102686.74
2022-08-09T05:45:14.889Z,102685.63
2022-08-09T05:46:17.971Z,102684.15
2022-08-09T05:47:22.987Z,102687.20
2022-08-09T05:48:32.718Z,102687.45
2022-08-09T05:50:35.145Z,102688.15
2022-08-09T05:51:16.835Z,102686.75
2022-08-09T05:52:24.771Z,102687.28
2022-08-09T05:53:31.790Z,102690.04
2022-08-09T05:54:36.157Z,102689.14
2022-08-09T05:55:42.195Z,102688.73
2022-08-09T05:56:54.582Z,102686.82
2022-08-09T05:57:58.817Z,102689.63
2022-08-09T05:59:01.963Z,102686.05
2022-08-09T06:00:07.663Z,102689.34
2022-08-09T06:01:15.790Z,102689.63
2022-08-09T06:02:19.619Z,102689.46
2022-08-09T06:03:25.216Z,102690.14
2022-08-09T06:04:44.564Z,102691.66
2022-08-09T06:05:58.074Z,102693.44
2022-08-09T06:07:09.408Z,102692.00
2022-08-09T06:08:12.344Z,102693.55
2022-08-09T06:09:40.509Z,102693.70
2022-08-09T06:10:38.700Z,102693.91
2022-08-09T06:11:57.078Z,102697.61
2022-08-09T06:13:03.180Z,102693.02
2022-08-09T06:14:22.029Z,102693.35
2022-08-09T06:15:26.448Z,102695.02
2022-08-09T06:16:29.702Z,102695.36
2022-08-09T06:17:39.806Z,102696.09
2022-08-09T06:18:43.793Z,102699.38
2022-08-09T06:19:47.204Z,102698.14
2022-08-09T06:20:54.578Z,102698.18
2022-08-09T06:22:00.563Z,102700.70
2022-08-09T06:23:03.495Z,102703.53
2022-08-09T06:24:06.480Z,102700.91
2022-08-09T06:25:12.298Z,102700.81
2022-08-09T06:26:22.448Z,102699.73
2022-08-09T06:27:25.745Z,102699.73
2022-08-09T06:28:45.861Z,102696.48
2022-08-09T06:30:04.579Z,102696.98
2022-08-09T06:31:13.301Z,102699.55
2022-08-09T06:32:53.388Z,102699.69
2022-08-09T06:33:42.157Z,102701.95
2022-08-09T06:34:53.252Z,102703.37
2022-08-09T06:35:58.235Z,102702.23
2022-08-09T06:37:01.815Z,102705.64
2022-08-09T06:38:06.720Z,102707.06
2022-08-09T06:39:11.812Z,102708.20
2022-08-09T06:40:21.720Z,102710.29
2022-08-09T06:42:07.737Z,102711.20
2022-08-09T06:42:52.454Z,102713.27
2022-08-09T06:43:55.483Z,102713.98
2022-08-09T06:44:58.999Z,102710.66
2022-08-09T06:46:07.169Z,102718.52
2022-08-09T06:47:14.269Z,102715.47
2022-08-09T06:48:30.407Z,102718.51
2022-08-09T06:50:11.165Z,102718.59
2022-08-09T06:50:57.026Z,102718.78
2022-08-09T06:52:01.264Z,102721.16
2022-08-09T06:53:05.073Z,102719.73
2022-08-09T06:54:12.497Z,102718.97
2022-08-09T06:55:23.370Z,102720.02
2022-08-09T06:56:30.860Z,102721.49
2022-08-09T06:58:01.210Z,102718.59
2022-08-09T07:00:51.564Z,102716.20
2022-08-09T07:00:54.636Z,102714.25
2022-08-09T07:01:58.041Z,102718.48
2022-08-09T07:03:06.560Z,102724.29
2022-08-09T07:04:10.373Z,102718.86
2022-08-09T07:05:13.802Z,102721.30
2022-08-09T07:06:19.569Z,102725.45
2022-08-09T07:07:28.541Z,102722.67
2022-08-09T07:08:45.591Z,102722.48
2022-08-09T07:09:54.854Z,102726.63
2022-08-09T07:11:06.802Z,102728.84
2022-08-09T07:12:13.567Z,102727.08
2022-08-09T07:13:27.867Z,102729.44
2022-08-09T07:14:32.187Z,102731.73
2022-08-09T07:16:35.301Z,102732.41
2022-08-09T07:16:58.642Z,102732.52
2022-08-09T07:18:02.665Z,102730.10
2022-08-09T07:19:06.222Z,102733.54
2022-08-09T07:20:10.962Z,102734.57
2022-08-09T07:21:14.763Z,102733.53
2022-08-09T07:22:18.271Z,102733.08
2022-08-09T07:23:21.568Z,102731.42
2022-08-09T07:24:31.903Z,102729.97
2022-08-09T07:25:42.630Z,102729.02
2022-08-09T07:26:46.516Z,102728.80
2022-08-09T07:27:55.528Z,102729.23
2022-08-09T07:29:09.349Z,102732.55
2022-08-09T07:30:16.467Z,102732.97
2022-08-09T07:31:21.253Z,102736.38
2022-08-09T07:32:32.051Z,102735.96
2022-08-09T07:33:52.586Z,102731.25
2022-08-09T07:34:58.724Z,102737.86
2022-08-09T07:36:01.641Z,102737.76
2022-08-09T07:37:04.938Z,102740.69
2022-08-09T07:38:13.961Z,102737.41
2022-08-09T07:39:20.362Z,102742.11
2022-08-09T07:41:09.974Z,102744.71
2022-08-09T07:42:06.390Z,102744.48
2022-08-09T07:43:16.604Z,102743.81
2022-08-09T07:44:24.161Z,102746.25
2022-08-09T07:45:43.060Z,102747.95
2022-08-09T07:46:47.781Z,102746.90
2022-08-09T07:48:04.099Z,102750.49
2022-08-09T07:49:08.335Z,102747.48
2022-08-09T07:50:19.326Z,102747.09
2022-08-09T07:52:06.229Z,102748.79
2022-08-09T07:53:02.628Z,102746.92
2022-08-09T07:54:08.423Z,102745.34
2022-08-09T07:55:11.884Z,102747.34
2022-08-09T07:56:26.903Z,102749.41
2022-08-09T07:57:35.903Z,102744.52
2022-08-09T07:58:39.331Z,102748.52
2022-08-09T07:59:45.758Z,102747.38
2022-08-09T08:00:55.779Z,102743.27
2022-08-09T08:02:09.674Z,102743.72
2022-08-09T08:03:12.799Z,102745.52
2022-08-09T08:04:15.705Z,102745.22
2022-08-09T08:05:19.632Z,102745.77
2022-08-09T08:06:22.529Z,102743.56
2022-08-09T08:08:43.397Z,102741.66
2022-08-09T08:09:02.146Z,102742.66
2022-08-09T08:10:10.761Z,102742.54
2022-08-09T08:12:11.233Z,102737.75
2022-08-09T08:12:43.130Z,102737.73
2022-08-09T08:13:56.345Z,102739.15
2022-08-09T08:15:00.300Z,102738.13
2022-08-09T08:16:04.102Z,102735.80
2022-08-09T08:17:08.709Z,102736.48
2022-08-09T08:18:14.364Z,102739.95
2022-08-09T08:19:17.860Z,102740.40
2022-08-09T08:20:29.461Z,102739.96
2022-08-09T08:21:33.841Z,102740.48
2022-08-09T08:22:42.674Z,102738.55
2022-08-09T08:23:55.704Z,102736.42
2022-08-09T08:24:59.171Z,102737.48
2022-08-09T08:26:08.323Z,102735.38
2022-08-09T08:27:16.983Z,102737.77
2022-08-09T08:28:26.020Z,102732.45
2022-08-09T08:29:39.127Z,102733.90
2022-08-09T08:30:48.831Z,102735.92
2022-08-09T08:32:03.986Z,102739.94
2022-08-09T08:33:12.124Z,102736.39
2022-08-09T08:34:26.569Z,102735.89
2022-08-09T08:35:37.165Z,102735.85
2022-08-09T08:36:55.050Z,102732.30
2022-08-09T08:38:04.828Z,102735.36
2022-08-09T08:39:15.063Z,102729.92
2022-08-09T08:40:20.423Z,102732.07
2022-08-09T08:41:23.785Z,102733.36
2022-08-09T08:42:32.106Z,102731.68
2022-08-09T08:43:36.225Z,102732.48
2022-08-09T08:44:41.622Z,102731.81
2022-08-09T08:46:04.111Z,102730.39
2022-08-09T08:47:16.335Z,102727.41
2022-08-09T08:48:19.903Z,102729.93
2022-08-09T08:49:26.831Z,102726.18
2022-08-09T08:50:41.958Z,102725.66
2022-08-09T08:52:00.137Z,102725.27
2022-08-09T08:53:04.517Z,102725.52
2022-08-09T08:54:10.115Z,102726.56
2022-08-09T08:55:15.204Z,102727.42
2022-08-09T08:56:25.027Z,102729.46
2022-08-09T08:57:34.922Z,102732.85
2022-08-09T08:58:38.635Z,102728.70
2022-08-09T08:59:53.940Z,102730.12
2022-08-09T09:01:08.945Z,102734.14
2022-08-09T09:02:31.492Z,102736.69
2022-08-09T09:03:37.900Z,102730.68
2022-08-09T09:04:52.621Z,102732.58
2022-08-09T09:05:59.941Z,102736.14
2022-08-09T09:07:09.464Z,102735.46
2022-08-09T09:08:29.723Z,102734.96
2022-08-09T09:09:41.201Z,102738.59
2022-08-09T09:11:03.990Z,102737.23
2022-08-09T09:12:16.515Z,102735.61
2022-08-09T09:13:20.542Z,102738.65
2022-08-09T09:14:27.102Z,102741.59
2022-08-09T09:15:30.091Z,102737.60
2022-08-09T09:16:34.780Z,102740.02
2022-08-09T09:17:49.057Z,102737.89
2022-08-09T09:19:10.838Z,102738.27
2022-08-09T09:20:18.611Z,102739.10
2022-08-09T09:21:26.065Z,102743.38
2022-08-09T09:22:48.875Z,102742.80
2022-08-09T09:23:58.189Z,102743.33
2022-08-09T09:26:01.910Z,102744.17
2022-08-09T09:26:31.065Z,102745.05
2022-08-09T09:28:06.663Z,102742.92
2022-08-09T09:29:04.128Z,102744.34
2022-08-09T09:30:38.688Z,102742.27
2022-08-09T09:32:06.425Z,102740.86
2022-08-09T09:33:15.423Z,102743.27
2022-08-09T09:34:20.226Z,102747.31
2022-08-09T09:35:24.405Z,102746.43
2022-08-09T09:36:38.016Z,102745.84
2022-08-09T09:37:41.134Z,102747.96
2022-08-09T09:38:44.735Z,102742.05
2022-08-09T09:39:56.805Z,102742.74
2022-08-09T09:41:00.675Z,102743.14
2022-08-09T09:42:08.935Z,102742.01
2022-08-09T09:43:20.782Z,102748.87
2022-08-09T09:44:34.738Z,102743.04
2022-08-09T09:47:14.983Z,102744.66
2022-08-09T09:48:19.500Z,102746.38
2022-08-09T09:49:31.963Z,102747.39
2022-08-09T09:50:50.801Z,102751.48
2022-08-09T09:52:02.286Z,102749.55
2022-08-09T09:53:10.427Z,102750.48
2022-08-09T09:54:18.595Z,102753.15
2022-08-09T09:55:31.346Z,102750.36
2022-08-09T09:56:38.458Z,102755.70
2022-08-09T09:58:16.139Z,102757.67
2022-08-09T09:59:25.374Z,102756.48
2022-08-09T10:00:43.832Z,102759.06
2022-08-09T10:01:59.557Z,102757.46
2022-08-09T10:03:11.689Z,102755.01
2022-08-09T10:04:23.060Z,102759.33
2022-08-09T10:06:04.090Z,102754.15
2022-08-09T10:06:56.575Z,102750.98
2022-08-09T10:08:26.063Z,102747.80
2022-08-09T10:09:27.943Z,102750.76
2022-08-09T10:10:31.725Z,102749.11
2022-08-09T10:11:59.918Z,102745.84
2022-08-09T10:12:58.956Z,102748.16
2022-08-09T10:14:03.770Z,102748.16
2022-08-09T10:15:17.421Z,102750.17
2022-08-09T10:16:57.312Z,102753.25
2022-08-09T10:18:09.943Z,102748.65
2022-08-09T10:19:14.798Z,102755.57
2022-08-09T10:20:17.711Z,102754.41
2022-08-09T10:21:31.574Z,102749.67
2022-08-09T10:22:37.440Z,102754.85
2022-08-09T10:23:43.163Z,102752.80
2022-08-09T10:24:46.292Z,102750.66
2022-08-09T10:26:06.686Z,102754.41
2022-08-09T10:27:18.137Z,102755.09
2022-08-09T10:28:32.899Z,102756.83
2022-08-09T10:30:48.118Z,102750.63
2022-08-09T10:32:40.201Z,102750.75
2022-08-09T10:34:11.467Z,102755.45
2022-08-09T10:35:09.760Z,102755.13
2022-08-09T10:36:13.723Z,102755.24
2022-08-09T10:37:18.346Z,102753.14
2022-08-09T10:38:54.427Z,102755.66
2022-08-09T10:39:49.273Z,102751.55
2022-08-09T10:40:53.009Z,102748.08
2022-08-09T10:41:59.835Z,102750.09
2022-08-09T10:43:04.775Z,102748.92
2022-08-09T10:44:11.139Z,102749.44
2022-08-09T10:45:16.494Z,102750.82
2022-08-09T10:46:52.543Z,102750.41
2022-08-09T10:48:16.750Z,102749.36
2022-08-09T10:49:50.256Z,102746.98
2022-08-09T10:51:09.968Z,102746.05
2022-08-09T10:52:13.602Z,102747.73
2022-08-09T10:53:23.969Z,102748.59
2022-08-09T10:54:27.711Z,102747.20
2022-08-09T10:55:54.919Z,102750.61
2022-08-09T10:57:09.101Z,102748.12
2022-08-09T10:58:39.002Z,102750.71
2022-08-09T10:59:57.703Z,102749.54
2022-08-09T11:03:02.365Z,102744.76
2022-08-09T11:03:10.881Z,102742.54
2022-08-09T11:04:28.023Z,102742.16
2022-08-09T11:05:31.573Z,102742.64
2022-08-09T11:06:38.822Z,102739.19
2022-08-09T11:07:57.338Z,102740.77
2022-08-09T11:09:16.014Z,102741.59
2022-08-09T11:10:59.793Z,102745.14
2022-08-09T11:12:11.629Z,102742.55
2022-08-09T11:13:51.217Z,102740.80
2022-08-09T11:14:38.655Z,102736.74
2022-08-09T11:15:50.890Z,102738.29
2022-08-09T11:16:54.285Z,102741.52
2022-08-09T11:18:03.621Z,102736.48
2022-08-09T11:19:10.247Z,102735.15
2022-08-09T11:20:22.092Z,102738.77
2022-08-09T11:22:16.719Z,102739.23
2022-08-09T11:23:24.086Z,102742.13
2022-08-09T11:24:56.220Z,102738.89
2022-08-09T11:26:00.571Z,102743.11
2022-08-09T11:28:02.902Z,102741.13
2022-08-09T11:28:56.399Z,102737.21
2022-08-09T11:30:04.873Z,102741.83
2022-08-09T11:31:34.190Z,102739.88
2022-08-09T11:32:39.944Z,102735.61
2022-08-09T11:33:45.644Z,102735.62
2022-08-09T11:34:52.306Z,102733.70
2022-08-09T11:35:59.189Z,102729.74
2022-08-09T11:37:03.547Z,102728.57
2022-08-09T11:38:18.301Z,102727.26
2022-08-09T11:39:22.029Z,102728.36
2022-08-09T11:40:29.987Z,102727.53
2022-08-09T11:41:38.338Z,102725.60
2022-08-09T11:42:48.331Z,102727.53
2022-08-09T11:43:52.795Z,102731.00
2022-08-09T11:44:57.307Z,102730.65
2022-08-09T11:46:02.133Z,102731.23
2022-08-09T11:47:05.123Z,102729.20
2022-08-09T11:48:26.251Z,102732.86
2022-08-09T11:50:52.240Z,102729.89
2022-08-09T11:52:49.005Z,102732.10
2022-08-09T11:53:16.041Z,102728.10
2022-08-09T11:54:27.888Z,102724.52
2022-08-09T11:55:53.460Z,102724.73
2022-08-09T11:57:16.548Z,102729.33
2022-08-09T11:58:33.057Z,102727.94
2022-08-09T11:59:37.980Z,102727.64
2022-08-09T12:00:54.062Z,102727.66
2022-08-09T12:02:17.699Z,102728.30
2022-08-09T12:03:55.373Z,102731.39
2022-08-09T12:04:45.765Z,102726.21
2022-08-09T12:05:49.629Z,102732.17
2022-08-09T12:06:55.742Z,102730.92
2022-08-09T12:07:59.550Z,102733.70
2022-08-09T12:09:19.332Z,102733.52
2022-08-09T12:10:38.597Z,102731.14
2022-08-09T12:12:02.108Z,102730.02
2022-08-09T12:14:09.977Z,102734.73
2022-08-09T12:14:40.564Z,102733.58
2022-08-09T12:16:05.177Z,102739.42
2022-08-09T12:17:34.448Z,102739.09
2022-08-09T12:18:49.024Z,102740.77
2022-08-09T12:19:59.793Z,102741.44
2022-08-09T12:21:11.008Z,102742.73
2022-08-09T12:22:29.172Z,102739.73
2022-08-09T12:23:56.309Z,102740.55
2022-08-09T12:25:10.945Z,102734.49
2022-08-09T12:26:19.712Z,102738.55
2022-08-09T12:29:12.228Z,102741.19
2022-08-09T12:29:12.575Z,102741.19
2022-08-09T12:30:35.759Z,102741.14
2022-08-09T12:32:01.667Z,102739.22
2022-08-09T12:33:03.429Z,102736.20
2022-08-09T12:34:06.318Z,102736.42
2022-08-09T12:35:12.580Z,102731.83
2022-08-09T12:36:31.790Z,102732.69
2022-08-09T12:37:50.196Z,102735.67
2022-08-09T12:38:54.736Z,102732.62
2022-08-09T12:40:05.862Z,102731.17
2022-08-09T12:41:09.083Z,102731.45
2022-08-09T12:42:16.608Z,102734.05
2022-08-09T12:43:21.141Z,102729.27
2022-08-09T12:44:46.479Z,102727.02
2022-08-09T12:45:59.381Z,102727.46
2022-08-09T12:47:04.941Z,102726.55
2022-08-09T12:48:20.418Z,102726.73
2022-08-09T12:49:33.128Z,102732.47
2022-08-09T12:50:37.748Z,102730.37
2022-08-09T12:52:01.637Z,102735.23
2022-08-09T12:53:18.212Z,102728.55
2022-08-09T12:54:23.963Z,102728.29
2022-08-09T12:56:15.072Z,102730.45
2022-08-09T12:56:54.407Z,102722.39
2022-08-09T12:57:59.069Z,102727.02
2022-08-09T12:59:16.809Z,102725.94
2022-08-09T13:00:32.704Z,102727.69
2022-08-09T13:01:38.109Z,102723.45
2022-08-09T13:02:48.367Z,102721.34
2022-08-09T13:04:02.010Z,102720.92
2022-08-09T13:05:05.107Z,102721.56
2022-08-09T13:06:15.912Z,102721.48
2022-08-09T13:07:28.620Z,102718.23
2022-08-09T13:08:57.670Z,102719.45
2022-08-09T13:10:04.679Z,102718.71
2022-08-09T13:11:13.414Z,102722.20
2022-08-09T13:12:29.588Z,102719.14
2022-08-09T13:13:38.224Z,102721.67
2022-08-09T13:15:07.690Z,102719.02
2022-08-09T13:16:12.504Z,102717.34
2022-08-09T13:17:44.245Z,102718.75
2022-08-09T13:18:42.143Z,102714.93
2022-08-09T13:20:08.741Z,102719.23
2022-08-09T13:22:35.712Z,102717.27
2022-08-09T13:23:01.253Z,102718.14
2022-08-09T13:24:42.151Z,102716.10
2022-08-09T13:25:42.434Z,102716.20
2022-08-09T13:26:49.747Z,102715.32
2022-08-09T13:27:55.600Z,102716.31
2022-08-09T13:29:12.966Z,102714.75
2022-08-09T13:30:50.211Z,102719.36
2022-08-09T13:32:14.249Z,102717.63
2022-08-09T13:33:24.277Z,102718.13
2022-08-09T13:34:28.272Z,102717.73
2022-08-09T13:35:34.622Z,102719.49
2022-08-09T13:36:57.427Z,102716.11
2022-08-09T13:38:00.327Z,102713.30
2022-08-09T13:41:17.317Z,102716.29
2022-08-09T13:41:55.004Z,102723.80
2022-08-09T13:42:01.442Z,102717.67
2022-08-09T13:43:09.469Z,102721.80
2022-08-09T13:44:16.998Z,102719.41
2022-08-09T13:45:20.834Z,102722.11
2022-08-09T13:47:16.126Z,102719.69
2022-08-09T13:47:51.288Z,102718.57
2022-08-09T13:48:57.637Z,102719.66
2022-08-09T13:50:12.350Z,102718.29
2022-08-09T13:51:17.359Z,102717.64
2022-08-09T13:52:23.045Z,102717.04
2022-08-09T13:53:27.275Z,102721.33
2022-08-09T13:55:00.044Z,102720.29
2022-08-09T13:56:03.506Z,102714.55
2022-08-09T13:57:06.762Z,102712.43
2022-08-09T13:58:11.628Z,102711.30
2022-08-09T13:59:14.919Z,102715.69
2022-08-09T14:00:21.824Z,102710.05
2022-08-09T14:01:56.016Z,102713.33
2022-08-09T14:03:02.991Z,102712.29
2022-08-09T14:04:16.530Z,102711.18
2022-08-09T14:05:59.816Z,102714.39
2022-08-09T14:06:57.463Z,102712.40
2022-08-09T14:08:03.596Z,102710.70
2022-08-09T14:09:07.564Z,102712.53
2022-08-09T14:10:17.427Z,102714.89
2022-08-09T14:11:46.922Z,102711.12
2022-08-09T14:12:51.116Z,102713.98
2022-08-09T14:14:15.405Z,102714.21
2022-08-09T14:16:07.184Z,102721.35
2022-08-09T14:16:41.634Z,102719.44
2022-08-09T14:18:06.405Z,102725.38
2022-08-09T14:19:07.553Z,102722.58
2022-08-09T14:20:11.046Z,102722.91
2022-08-09T14:21:18.978Z,102722.86
2022-08-09T14:22:24.892Z,102722.58
2022-08-09T14:23:53.718Z,102718.60
2022-08-09T14:24:54.073Z,102722.15
2022-08-09T14:26:01.515Z,102722.98
2022-08-09T14:27:20.621Z,102719.49
2022-08-09T14:28:23.810Z,102719.36
2022-08-09T14:30:34.124Z,102717.08
2022-08-09T14:30:52.626Z,102720.89
2022-08-09T14:31:55.629Z,102719.80
2022-08-09T14:32:58.739Z,102720.30
2022-08-09T14:34:07.924Z,102720.73
2022-08-09T14:35:11.575Z,102723.65
2022-08-09T14:36:19.809Z,102722.26
2022-08-09T14:37:28.552Z,102720.14
2022-08-09T14:38:44.209Z,102723.14
2022-08-09T14:39:50.558Z,102722.52
2022-08-09T14:41:01.352Z,102725.77